sensor_id;sensor_type;location;lat;lon;timestamp;P1;durP1;ratioP1;P2;durP2;ratioP2
75758;SDS011;64371;47.566;19.086;2022-10-31T00:00:19;6.80;;;4.80;;
75758;SDS011;64371;47.566;19.086;2022-10-31T00:03:21;7.03;;;5.07;;
75758;SDS011;64371;47.566;19.086;2022-10-31T00:06:23;5.90;;;5.30;;
75758;SDS011;64371;47.566;19.086;2022-10-31T00:09:26;6.43;;;5.05;;
75758;SDS011;64371;47.566;19.086;2022-10-31T00:12:28;6.13;;;4.93;;
75758;SDS011;64371;47.566;19.086;2022-10-31T00:15:32;6.07;;;5.07;;
75758;SDS011;64371;47.566;19.086;2022-10-31T00:18:38;6.28;;;5.15;;
75758;SDS011;64371;47.566;19.086;2022-10-31T00:21:40;7.47;;;5.40;;
75758;SDS011;64371;47.566;19.086;2022-10-31T00:24:42;7.20;;;5.55;;
75758;SDS011;64371;47.566;19.086;2022-10-31T00:27:44;6.90;;;5.45;;
75758;SDS011;64371;47.566;19.086;2022-10-31T00:30:47;6.77;;;5.13;;
75758;SDS011;64371;47.566;19.086;2022-10-31T00:33:49;5.78;;;4.88;;
75758;SDS011;64371;47.566;19.086;2022-10-31T00:36:52;6.43;;;5.05;;
75758;SDS011;64371;47.566;19.086;2022-10-31T00:39:55;7.22;;;5.28;;
75758;SDS011;64371;47.566;19.086;2022-10-31T00:42:57;6.70;;;5.40;;
75758;SDS011;64371;47.566;19.086;2022-10-31T00:46:00;7.50;;;4.83;;
75758;SDS011;64371;47.566;19.086;2022-10-31T00:49:02;6.18;;;5.18;;
75758;SDS011;64371;47.566;19.086;2022-10-31T00:52:04;6.57;;;5.40;;
75758;SDS011;64371;47.566;19.086;2022-10-31T00:55:06;7.07;;;5.35;;
75758;SDS011;64371;47.566;19.086;2022-10-31T00:58:09;7.03;;;5.22;;
75758;SDS011;64371;47.566;19.086;2022-10-31T01:01:12;7.90;;;5.70;;
75758;SDS011;64371;47.566;19.086;2022-10-31T01:04:14;5.82;;;4.93;;
75758;SDS011;64371;47.566;19.086;2022-10-31T01:07:16;6.00;;;5.20;;
75758;SDS011;64371;47.566;19.086;2022-10-31T01:10:19;8.82;;;5.60;;
75758;SDS011;64371;47.566;19.086;2022-10-31T01:13:24;6.53;;;5.32;;
75758;SDS011;64371;47.566;19.086;2022-10-31T01:16:26;7.53;;;5.50;;
75758;SDS011;64371;47.566;19.086;2022-10-31T01:19:32;6.35;;;4.80;;
75758;SDS011;64371;47.566;19.086;2022-10-31T01:22:34;7.10;;;5.28;;
75758;SDS011;64371;47.566;19.086;2022-10-31T01:25:36;7.30;;;5.80;;
75758;SDS011;64371;47.566;19.086;2022-10-31T01:28:40;6.90;;;5.40;;
75758;SDS011;64371;47.566;19.086;2022-10-31T01:31:47;5.70;;;4.80;;
75758;SDS011;64371;47.566;19.086;2022-10-31T01:34:49;6.88;;;5.60;;
75758;SDS011;64371;47.566;19.086;2022-10-31T01:37:51;7.85;;;5.35;;
75758;SDS011;64371;47.566;19.086;2022-10-31T01:40:53;6.63;;;5.00;;
75758;SDS011;64371;47.566;19.086;2022-10-31T01:43:57;6.68;;;5.25;;
75758;SDS011;64371;47.566;19.086;2022-10-31T01:47:08;7.07;;;5.43;;
75758;SDS011;64371;47.566;19.086;2022-10-31T01:50:27;6.85;;;5.10;;
75758;SDS011;64371;47.566;19.086;2022-10-31T01:53:33;7.93;;;5.07;;
75758;SDS011;64371;47.566;19.086;2022-10-31T01:56:38;7.63;;;5.43;;
75758;SDS011;64371;47.566;19.086;2022-10-31T01:59:45;5.80;;;5.13;;
75758;SDS011;64371;47.566;19.086;2022-10-31T02:02:51;7.50;;;5.77;;
75758;SDS011;64371;47.566;19.086;2022-10-31T02:05:54;7.32;;;5.72;;
75758;SDS011;64371;47.566;19.086;2022-10-31T02:08:59;6.57;;;5.53;;
75758;SDS011;64371;47.566;19.086;2022-10-31T02:12:03;6.78;;;5.32;;
75758;SDS011;64371;47.566;19.086;2022-10-31T02:15:07;6.55;;;5.25;;
75758;SDS011;64371;47.566;19.086;2022-10-31T02:18:10;7.03;;;5.50;;
75758;SDS011;64371;47.566;19.086;2022-10-31T02:21:20;6.43;;;5.32;;
75758;SDS011;64371;47.566;19.086;2022-10-31T02:31:20;7.15;;;5.38;;
75758;SDS011;64371;47.566;19.086;2022-10-31T02:44:58;7.28;;;5.90;;
75758;SDS011;64371;47.566;19.086;2022-10-31T02:48:23;9.05;;;5.45;;
75758;SDS011;64371;47.566;19.086;2022-10-31T02:51:29;7.37;;;5.50;;
75758;SDS011;64371;47.566;19.086;2022-10-31T02:54:32;6.75;;;5.63;;
75758;SDS011;64371;47.566;19.086;2022-10-31T02:57:34;8.27;;;6.20;;
75758;SDS011;64371;47.566;19.086;2022-10-31T03:10:42;7.22;;;5.40;;
75758;SDS011;64371;47.566;19.086;2022-10-31T03:13:59;7.50;;;5.80;;
75758;SDS011;64371;47.566;19.086;2022-10-31T03:17:09;7.22;;;5.38;;
75758;SDS011;64371;47.566;19.086;2022-10-31T03:20:21;6.95;;;5.38;;
75758;SDS011;64371;47.566;19.086;2022-10-31T03:23:28;6.73;;;5.10;;
75758;SDS011;64371;47.566;19.086;2022-10-31T03:26:31;6.38;;;5.05;;
75758;SDS011;64371;47.566;19.086;2022-10-31T03:29:36;6.65;;;5.55;;
75758;SDS011;64371;47.566;19.086;2022-10-31T03:32:41;7.55;;;5.47;;
75758;SDS011;64371;47.566;19.086;2022-10-31T03:35:48;7.18;;;5.50;;
75758;SDS011;64371;47.566;19.086;2022-10-31T03:38:55;7.03;;;5.73;;
75758;SDS011;64371;47.566;19.086;2022-10-31T03:42:02;6.85;;;5.80;;
75758;SDS011;64371;47.566;19.086;2022-10-31T03:45:11;6.50;;;5.40;;
75758;SDS011;64371;47.566;19.086;2022-10-31T03:48:17;7.55;;;5.63;;
75758;SDS011;64371;47.566;19.086;2022-10-31T03:51:22;7.55;;;5.72;;
75758;SDS011;64371;47.566;19.086;2022-10-31T03:54:38;6.20;;;4.87;;
75758;SDS011;64371;47.566;19.086;2022-10-31T03:57:51;6.90;;;5.55;;
75758;SDS011;64371;47.566;19.086;2022-10-31T04:01:00;7.10;;;5.30;;
75758;SDS011;64371;47.566;19.086;2022-10-31T04:04:06;6.45;;;4.88;;
75758;SDS011;64371;47.566;19.086;2022-10-31T04:07:09;7.10;;;5.35;;
75758;SDS011;64371;47.566;19.086;2022-10-31T04:10:14;7.00;;;5.43;;
75758;SDS011;64371;47.566;19.086;2022-10-31T04:13:19;6.93;;;5.55;;
75758;SDS011;64371;47.566;19.086;2022-10-31T04:16:32;7.22;;;5.53;;
75758;SDS011;64371;47.566;19.086;2022-10-31T04:19:35;7.30;;;5.82;;
75758;SDS011;64371;47.566;19.086;2022-10-31T04:22:37;6.03;;;5.10;;
75758;SDS011;64371;47.566;19.086;2022-10-31T04:25:40;6.37;;;5.37;;
75758;SDS011;64371;47.566;19.086;2022-10-31T04:28:42;6.57;;;5.18;;
75758;SDS011;64371;47.566;19.086;2022-10-31T04:31:46;7.35;;;5.45;;
75758;SDS011;64371;47.566;19.086;2022-10-31T04:34:48;6.53;;;5.00;;
75758;SDS011;64371;47.566;19.086;2022-10-31T04:37:50;6.40;;;5.07;;
75758;SDS011;64371;47.566;19.086;2022-10-31T04:40:53;6.77;;;5.03;;
75758;SDS011;64371;47.566;19.086;2022-10-31T04:44:27;6.82;;;5.07;;
75758;SDS011;64371;47.566;19.086;2022-10-31T04:47:34;6.15;;;4.80;;
75758;SDS011;64371;47.566;19.086;2022-10-31T04:50:36;5.90;;;4.65;;
75758;SDS011;64371;47.566;19.086;2022-10-31T04:53:39;6.70;;;5.40;;
75758;SDS011;64371;47.566;19.086;2022-10-31T04:57:07;6.90;;;5.17;;
75758;SDS011;64371;47.566;19.086;2022-10-31T05:00:11;6.07;;;4.88;;
75758;SDS011;64371;47.566;19.086;2022-10-31T05:03:15;7.60;;;5.20;;
75758;SDS011;64371;47.566;19.086;2022-10-31T05:06:17;6.63;;;5.03;;
75758;SDS011;64371;47.566;19.086;2022-10-31T05:09:22;6.95;;;4.90;;
75758;SDS011;64371;47.566;19.086;2022-10-31T05:12:25;6.70;;;4.80;;
75758;SDS011;64371;47.566;19.086;2022-10-31T05:15:42;5.88;;;4.80;;
75758;SDS011;64371;47.566;19.086;2022-10-31T05:19:03;5.53;;;4.65;;
75758;SDS011;64371;47.566;19.086;2022-10-31T05:22:25;6.80;;;5.10;;
75758;SDS011;64371;47.566;19.086;2022-10-31T05:25:28;6.13;;;5.15;;
75758;SDS011;64371;47.566;19.086;2022-10-31T05:28:31;5.97;;;4.70;;
75758;SDS011;64371;47.566;19.086;2022-10-31T05:31:34;6.18;;;4.47;;
75758;SDS011;64371;47.566;19.086;2022-10-31T05:34:40;6.55;;;5.15;;
75758;SDS011;64371;47.566;19.086;2022-10-31T05:38:20;6.43;;;4.70;;
75758;SDS011;64371;47.566;19.086;2022-10-31T05:41:22;7.13;;;4.93;;
75758;SDS011;64371;47.566;19.086;2022-10-31T05:44:25;6.67;;;4.73;;
75758;SDS011;64371;47.566;19.086;2022-10-31T05:47:51;6.72;;;5.00;;
75758;SDS011;64371;47.566;19.086;2022-10-31T05:51:13;5.50;;;4.40;;
75758;SDS011;64371;47.566;19.086;2022-10-31T05:54:16;7.28;;;5.15;;
75758;SDS011;64371;47.566;19.086;2022-10-31T05:57:20;6.28;;;4.60;;
75758;SDS011;64371;47.566;19.086;2022-10-31T06:00:22;6.47;;;4.87;;
75758;SDS011;64371;47.566;19.086;2022-10-31T06:03:25;5.97;;;4.75;;
75758;SDS011;64371;47.566;19.086;2022-10-31T06:06:30;6.35;;;5.30;;
75758;SDS011;64371;47.566;19.086;2022-10-31T06:09:32;6.22;;;4.80;;
75758;SDS011;64371;47.566;19.086;2022-10-31T06:12:41;7.38;;;5.15;;
75758;SDS011;64371;47.566;19.086;2022-10-31T06:16:04;6.63;;;5.10;;
75758;SDS011;64371;47.566;19.086;2022-10-31T06:19:10;6.68;;;5.05;;
75758;SDS011;64371;47.566;19.086;2022-10-31T06:22:12;5.90;;;4.78;;
75758;SDS011;64371;47.566;19.086;2022-10-31T06:25:15;6.07;;;4.65;;
75758;SDS011;64371;47.566;19.086;2022-10-31T06:28:22;6.38;;;5.03;;
75758;SDS011;64371;47.566;19.086;2022-10-31T06:31:29;5.77;;;4.50;;
75758;SDS011;64371;47.566;19.086;2022-10-31T06:34:31;6.05;;;4.72;;
75758;SDS011;64371;47.566;19.086;2022-10-31T06:37:34;6.55;;;5.03;;
75758;SDS011;64371;47.566;19.086;2022-10-31T06:40:56;6.15;;;4.63;;
75758;SDS011;64371;47.566;19.086;2022-10-31T06:44:02;6.10;;;4.55;;
75758;SDS011;64371;47.566;19.086;2022-10-31T06:47:28;6.13;;;4.63;;
75758;SDS011;64371;47.566;19.086;2022-10-31T06:50:50;6.43;;;4.82;;
75758;SDS011;64371;47.566;19.086;2022-10-31T06:53:59;5.97;;;5.00;;
75758;SDS011;64371;47.566;19.086;2022-10-31T06:57:01;5.47;;;4.55;;
75758;SDS011;64371;47.566;19.086;2022-10-31T07:00:04;6.65;;;4.80;;
75758;SDS011;64371;47.566;19.086;2022-10-31T07:03:17;5.93;;;4.80;;
75758;SDS011;64371;47.566;19.086;2022-10-31T07:06:20;6.30;;;4.95;;
75758;SDS011;64371;47.566;19.086;2022-10-31T07:09:22;6.78;;;4.78;;
75758;SDS011;64371;47.566;19.086;2022-10-31T07:12:24;6.63;;;4.93;;
75758;SDS011;64371;47.566;19.086;2022-10-31T07:15:33;5.70;;;4.85;;
75758;SDS011;64371;47.566;19.086;2022-10-31T07:18:37;6.30;;;5.00;;
75758;SDS011;64371;47.566;19.086;2022-10-31T07:21:40;6.03;;;4.53;;
75758;SDS011;64371;47.566;19.086;2022-10-31T07:24:48;6.45;;;4.85;;
75758;SDS011;64371;47.566;19.086;2022-10-31T07:27:53;6.95;;;5.00;;
75758;SDS011;64371;47.566;19.086;2022-10-31T07:30:57;5.50;;;4.60;;
75758;SDS011;64371;47.566;19.086;2022-10-31T07:33:59;6.07;;;4.77;;
75758;SDS011;64371;47.566;19.086;2022-10-31T07:37:02;5.90;;;4.43;;
75758;SDS011;64371;47.566;19.086;2022-10-31T07:40:05;7.82;;;5.30;;
75758;SDS011;64371;47.566;19.086;2022-10-31T07:43:12;6.03;;;4.70;;
75758;SDS011;64371;47.566;19.086;2022-10-31T07:46:38;6.72;;;4.78;;
75758;SDS011;64371;47.566;19.086;2022-10-31T07:50:07;5.77;;;4.70;;
75758;SDS011;64371;47.566;19.086;2022-10-31T07:53:33;6.03;;;4.63;;
75758;SDS011;64371;47.566;19.086;2022-10-31T07:56:46;5.53;;;4.60;;
75758;SDS011;64371;47.566;19.086;2022-10-31T07:59:49;5.75;;;4.20;;
75758;SDS011;64371;47.566;19.086;2022-10-31T08:03:03;6.57;;;4.93;;
75758;SDS011;64371;47.566;19.086;2022-10-31T08:06:26;6.43;;;4.70;;
75758;SDS011;64371;47.566;19.086;2022-10-31T08:09:45;5.90;;;4.65;;
75758;SDS011;64371;47.566;19.086;2022-10-31T08:13:00;6.18;;;4.70;;
75758;SDS011;64371;47.566;19.086;2022-10-31T08:16:08;5.53;;;4.45;;
75758;SDS011;64371;47.566;19.086;2022-10-31T08:19:18;5.80;;;4.80;;
75758;SDS011;64371;47.566;19.086;2022-10-31T08:22:20;5.77;;;4.33;;
75758;SDS011;64371;47.566;19.086;2022-10-31T08:25:23;6.05;;;4.50;;
75758;SDS011;64371;47.566;19.086;2022-10-31T08:28:27;6.50;;;4.57;;
75758;SDS011;64371;47.566;19.086;2022-10-31T08:31:29;5.85;;;4.18;;
75758;SDS011;64371;47.566;19.086;2022-10-31T08:34:54;5.60;;;4.50;;
75758;SDS011;64371;47.566;19.086;2022-10-31T08:38:15;4.83;;;3.80;;
75758;SDS011;64371;47.566;19.086;2022-10-31T08:41:21;5.53;;;4.07;;
75758;SDS011;64371;47.566;19.086;2022-10-31T08:44:23;5.63;;;4.30;;
75758;SDS011;64371;47.566;19.086;2022-10-31T08:47:26;5.85;;;4.40;;
75758;SDS011;64371;47.566;19.086;2022-10-31T08:50:31;5.70;;;4.50;;
75758;SDS011;64371;47.566;19.086;2022-10-31T08:53:36;5.80;;;4.60;;
75758;SDS011;64371;47.566;19.086;2022-10-31T08:57:19;5.85;;;4.07;;
75758;SDS011;64371;47.566;19.086;2022-10-31T09:00:23;4.80;;;4.05;;
75758;SDS011;64371;47.566;19.086;2022-10-31T09:03:31;5.57;;;4.45;;
75758;SDS011;64371;47.566;19.086;2022-10-31T09:06:34;6.28;;;4.40;;
75758;SDS011;64371;47.566;19.086;2022-10-31T09:09:39;6.10;;;4.60;;
75758;SDS011;64371;47.566;19.086;2022-10-31T09:12:42;5.82;;;4.35;;
75758;SDS011;64371;47.566;19.086;2022-10-31T09:15:56;4.45;;;3.72;;
75758;SDS011;64371;47.566;19.086;2022-10-31T09:19:02;5.30;;;3.92;;
75758;SDS011;64371;47.566;19.086;2022-10-31T09:22:11;5.63;;;4.60;;
75758;SDS011;64371;47.566;19.086;2022-10-31T09:25:14;4.90;;;3.80;;
75758;SDS011;64371;47.566;19.086;2022-10-31T09:28:22;5.07;;;4.03;;
75758;SDS011;64371;47.566;19.086;2022-10-31T09:31:26;4.85;;;4.20;;
75758;SDS011;64371;47.566;19.086;2022-10-31T09:34:58;5.00;;;3.88;;
75758;SDS011;64371;47.566;19.086;2022-10-31T09:38:04;5.60;;;4.38;;
75758;SDS011;64371;47.566;19.086;2022-10-31T09:41:14;5.57;;;4.70;;
75758;SDS011;64371;47.566;19.086;2022-10-31T09:48:17;5.22;;;3.83;;
75758;SDS011;64371;47.566;19.086;2022-10-31T09:51:51;5.70;;;4.25;;
75758;SDS011;64371;47.566;19.086;2022-10-31T09:55:05;5.90;;;4.45;;
75758;SDS011;64371;47.566;19.086;2022-10-31T09:58:26;5.33;;;4.13;;
75758;SDS011;64371;47.566;19.086;2022-10-31T10:01:45;5.22;;;4.07;;
75758;SDS011;64371;47.566;19.086;2022-10-31T10:05:03;6.47;;;4.25;;
75758;SDS011;64371;47.566;19.086;2022-10-31T10:08:19;5.47;;;4.03;;
75758;SDS011;64371;47.566;19.086;2022-10-31T10:11:47;5.13;;;4.50;;
75758;SDS011;64371;47.566;19.086;2022-10-31T10:14:54;5.30;;;4.17;;
75758;SDS011;64371;47.566;19.086;2022-10-31T10:18:04;5.70;;;4.43;;
75758;SDS011;64371;47.566;19.086;2022-10-31T10:21:24;5.47;;;4.18;;
75758;SDS011;64371;47.566;19.086;2022-10-31T10:24:33;5.55;;;4.35;;
75758;SDS011;64371;47.566;19.086;2022-10-31T10:31:14;5.17;;;4.20;;
75758;SDS011;64371;47.566;19.086;2022-10-31T10:34:27;5.97;;;4.35;;
75758;SDS011;64371;47.566;19.086;2022-10-31T10:37:39;6.00;;;4.43;;
75758;SDS011;64371;47.566;19.086;2022-10-31T10:40:45;5.03;;;4.05;;
75758;SDS011;64371;47.566;19.086;2022-10-31T10:43:51;6.40;;;4.00;;
75758;SDS011;64371;47.566;19.086;2022-10-31T10:46:56;5.40;;;4.10;;
75758;SDS011;64371;47.566;19.086;2022-10-31T10:50:21;6.07;;;4.43;;
75758;SDS011;64371;47.566;19.086;2022-10-31T11:00:13;5.13;;;4.18;;
75758;SDS011;64371;47.566;19.086;2022-10-31T11:03:24;6.63;;;4.70;;
75758;SDS011;64371;47.566;19.086;2022-10-31T11:06:26;5.30;;;4.18;;
75758;SDS011;64371;47.566;19.086;2022-10-31T11:09:29;5.47;;;4.32;;
75758;SDS011;64371;47.566;19.086;2022-10-31T11:12:32;5.57;;;4.53;;
75758;SDS011;64371;47.566;19.086;2022-10-31T11:22:17;5.38;;;4.32;;
75758;SDS011;64371;47.566;19.086;2022-10-31T11:28:27;5.25;;;4.10;;
75758;SDS011;64371;47.566;19.086;2022-10-31T11:31:31;6.00;;;4.32;;
75758;SDS011;64371;47.566;19.086;2022-10-31T11:34:37;6.37;;;4.27;;
75758;SDS011;64371;47.566;19.086;2022-10-31T11:37:47;6.13;;;4.22;;
75758;SDS011;64371;47.566;19.086;2022-10-31T11:40:52;6.60;;;4.25;;
75758;SDS011;64371;47.566;19.086;2022-10-31T11:43:59;5.55;;;4.18;;
75758;SDS011;64371;47.566;19.086;2022-10-31T11:47:28;5.00;;;4.05;;
75758;SDS011;64371;47.566;19.086;2022-10-31T11:50:35;5.77;;;4.40;;
75758;SDS011;64371;47.566;19.086;2022-10-31T11:53:47;5.22;;;3.95;;
75758;SDS011;64371;47.566;19.086;2022-10-31T11:57:02;5.55;;;4.25;;
75758;SDS011;64371;47.566;19.086;2022-10-31T12:07:12;5.53;;;4.17;;
75758;SDS011;64371;47.566;19.086;2022-10-31T12:10:14;5.57;;;4.18;;
75758;SDS011;64371;47.566;19.086;2022-10-31T12:13:24;6.55;;;4.80;;
75758;SDS011;64371;47.566;19.086;2022-10-31T12:16:34;6.55;;;4.45;;
75758;SDS011;64371;47.566;19.086;2022-10-31T12:36:21;6.28;;;4.47;;
75758;SDS011;64371;47.566;19.086;2022-10-31T12:45:58;6.93;;;4.40;;
75758;SDS011;64371;47.566;19.086;2022-10-31T12:49:18;5.72;;;4.68;;
75758;SDS011;64371;47.566;19.086;2022-10-31T12:52:53;5.80;;;4.78;;
75758;SDS011;64371;47.566;19.086;2022-10-31T13:06:13;6.32;;;4.45;;
75758;SDS011;64371;47.566;19.086;2022-10-31T13:09:20;6.00;;;4.50;;
75758;SDS011;64371;47.566;19.086;2022-10-31T13:12:33;6.40;;;4.60;;
75758;SDS011;64371;47.566;19.086;2022-10-31T13:15:49;6.05;;;4.85;;
75758;SDS011;64371;47.566;19.086;2022-10-31T13:18:56;5.65;;;4.40;;
75758;SDS011;64371;47.566;19.086;2022-10-31T13:22:22;5.75;;;4.20;;
75758;SDS011;64371;47.566;19.086;2022-10-31T13:25:30;6.15;;;4.68;;
75758;SDS011;64371;47.566;19.086;2022-10-31T13:32:05;5.47;;;4.18;;
75758;SDS011;64371;47.566;19.086;2022-10-31T13:41:59;6.25;;;4.75;;
75758;SDS011;64371;47.566;19.086;2022-10-31T13:45:11;6.13;;;4.57;;
75758;SDS011;64371;47.566;19.086;2022-10-31T13:48:19;5.70;;;4.28;;
75758;SDS011;64371;47.566;19.086;2022-10-31T13:51:35;6.35;;;4.57;;
75758;SDS011;64371;47.566;19.086;2022-10-31T13:54:38;7.30;;;4.82;;
75758;SDS011;64371;47.566;19.086;2022-10-31T13:57:45;5.95;;;4.60;;
75758;SDS011;64371;47.566;19.086;2022-10-31T14:00:57;6.00;;;4.30;;
75758;SDS011;64371;47.566;19.086;2022-10-31T14:04:06;6.43;;;4.78;;
75758;SDS011;64371;47.566;19.086;2022-10-31T14:07:16;7.47;;;4.97;;
75758;SDS011;64371;47.566;19.086;2022-10-31T14:10:26;7.97;;;4.85;;
75758;SDS011;64371;47.566;19.086;2022-10-31T14:13:37;5.72;;;4.60;;
75758;SDS011;64371;47.566;19.086;2022-10-31T14:16:45;6.03;;;4.60;;
75758;SDS011;64371;47.566;19.086;2022-10-31T14:19:58;6.20;;;4.47;;
75758;SDS011;64371;47.566;19.086;2022-10-31T14:26:35;6.57;;;4.78;;
75758;SDS011;64371;47.566;19.086;2022-10-31T14:29:38;5.70;;;4.18;;
75758;SDS011;64371;47.566;19.086;2022-10-31T14:32:40;7.13;;;4.60;;
75758;SDS011;64371;47.566;19.086;2022-10-31T14:49:40;5.10;;;4.17;;
75758;SDS011;64371;47.566;19.086;2022-10-31T14:53:00;5.88;;;4.38;;
75758;SDS011;64371;47.566;19.086;2022-10-31T14:56:05;5.18;;;4.00;;
75758;SDS011;64371;47.566;19.086;2022-10-31T14:59:14;5.93;;;4.25;;
75758;SDS011;64371;47.566;19.086;2022-10-31T15:02:24;6.32;;;4.35;;
75758;SDS011;64371;47.566;19.086;2022-10-31T15:05:32;4.67;;;4.03;;
75758;SDS011;64371;47.566;19.086;2022-10-31T15:08:46;6.18;;;4.97;;
75758;SDS011;64371;47.566;19.086;2022-10-31T15:11:50;5.70;;;4.28;;
75758;SDS011;64371;47.566;19.086;2022-10-31T15:14:53;5.35;;;4.22;;
75758;SDS011;64371;47.566;19.086;2022-10-31T15:17:56;5.50;;;4.40;;
75758;SDS011;64371;47.566;19.086;2022-10-31T15:21:01;5.83;;;4.33;;
75758;SDS011;64371;47.566;19.086;2022-10-31T15:24:10;5.38;;;4.10;;
75758;SDS011;64371;47.566;19.086;2022-10-31T15:27:17;5.85;;;4.53;;
75758;SDS011;64371;47.566;19.086;2022-10-31T15:30:22;4.95;;;4.10;;
75758;SDS011;64371;47.566;19.086;2022-10-31T15:33:31;5.55;;;4.45;;
75758;SDS011;64371;47.566;19.086;2022-10-31T15:36:48;4.63;;;4.00;;
75758;SDS011;64371;47.566;19.086;2022-10-31T15:39:54;5.65;;;4.32;;
75758;SDS011;64371;47.566;19.086;2022-10-31T15:42:57;5.88;;;4.47;;
75758;SDS011;64371;47.566;19.086;2022-10-31T15:46:02;5.45;;;4.10;;
75758;SDS011;64371;47.566;19.086;2022-10-31T15:49:16;5.97;;;4.30;;
75758;SDS011;64371;47.566;19.086;2022-10-31T15:52:32;5.70;;;4.27;;
75758;SDS011;64371;47.566;19.086;2022-10-31T15:55:46;5.65;;;3.92;;
75758;SDS011;64371;47.566;19.086;2022-10-31T15:58:52;5.63;;;4.22;;
75758;SDS011;64371;47.566;19.086;2022-10-31T16:02:19;4.70;;;3.83;;
75758;SDS011;64371;47.566;19.086;2022-10-31T16:05:24;5.32;;;3.80;;
75758;SDS011;64371;47.566;19.086;2022-10-31T16:08:36;4.70;;;3.90;;
75758;SDS011;64371;47.566;19.086;2022-10-31T16:11:39;5.55;;;4.20;;
75758;SDS011;64371;47.566;19.086;2022-10-31T16:14:41;4.82;;;3.80;;
75758;SDS011;64371;47.566;19.086;2022-10-31T16:17:44;5.57;;;4.15;;
75758;SDS011;64371;47.566;19.086;2022-10-31T16:20:52;4.78;;;4.10;;
75758;SDS011;64371;47.566;19.086;2022-10-31T16:24:04;5.50;;;4.10;;
75758;SDS011;64371;47.566;19.086;2022-10-31T16:27:18;5.15;;;3.85;;
75758;SDS011;64371;47.566;19.086;2022-10-31T16:30:36;5.75;;;4.20;;
75758;SDS011;64371;47.566;19.086;2022-10-31T16:33:41;5.57;;;4.25;;
75758;SDS011;64371;47.566;19.086;2022-10-31T16:36:44;5.35;;;4.30;;
75758;SDS011;64371;47.566;19.086;2022-10-31T16:39:46;5.37;;;3.97;;
75758;SDS011;64371;47.566;19.086;2022-10-31T16:42:49;5.18;;;4.18;;
75758;SDS011;64371;47.566;19.086;2022-10-31T16:45:51;5.07;;;4.07;;
75758;SDS011;64371;47.566;19.086;2022-10-31T16:48:54;5.75;;;3.90;;
75758;SDS011;64371;47.566;19.086;2022-10-31T16:51:56;5.47;;;4.03;;
75758;SDS011;64371;47.566;19.086;2022-10-31T16:54:59;5.03;;;3.97;;
75758;SDS011;64371;47.566;19.086;2022-10-31T16:58:02;5.70;;;3.97;;
75758;SDS011;64371;47.566;19.086;2022-10-31T17:01:06;5.03;;;4.38;;
75758;SDS011;64371;47.566;19.086;2022-10-31T17:04:11;6.97;;;4.40;;
75758;SDS011;64371;47.566;19.086;2022-10-31T17:07:15;5.43;;;4.43;;
75758;SDS011;64371;47.566;19.086;2022-10-31T17:10:17;5.83;;;3.77;;
75758;SDS011;64371;47.566;19.086;2022-10-31T17:13:27;5.10;;;4.07;;
75758;SDS011;64371;47.566;19.086;2022-10-31T17:16:31;6.30;;;4.00;;
75758;SDS011;64371;47.566;19.086;2022-10-31T17:19:34;6.07;;;3.97;;
75758;SDS011;64371;47.566;19.086;2022-10-31T17:22:36;6.13;;;4.03;;
75758;SDS011;64371;47.566;19.086;2022-10-31T17:25:38;5.00;;;4.00;;
75758;SDS011;64371;47.566;19.086;2022-10-31T17:28:41;5.60;;;4.22;;
75758;SDS011;64371;47.566;19.086;2022-10-31T17:31:46;4.82;;;3.67;;
75758;SDS011;64371;47.566;19.086;2022-10-31T17:34:51;5.43;;;4.22;;
75758;SDS011;64371;47.566;19.086;2022-10-31T17:37:53;5.43;;;3.97;;
75758;SDS011;64371;47.566;19.086;2022-10-31T17:40:56;5.23;;;3.87;;
75758;SDS011;64371;47.566;19.086;2022-10-31T17:43:58;6.00;;;4.30;;
75758;SDS011;64371;47.566;19.086;2022-10-31T17:47:01;5.90;;;4.20;;
75758;SDS011;64371;47.566;19.086;2022-10-31T17:50:03;4.70;;;3.63;;
75758;SDS011;64371;47.566;19.086;2022-10-31T17:53:06;5.22;;;3.97;;
75758;SDS011;64371;47.566;19.086;2022-10-31T17:56:08;5.53;;;4.10;;
75758;SDS011;64371;47.566;19.086;2022-10-31T17:59:11;4.95;;;3.90;;
75758;SDS011;64371;47.566;19.086;2022-10-31T18:02:13;5.65;;;4.38;;
75758;SDS011;64371;47.566;19.086;2022-10-31T18:05:15;6.43;;;4.32;;
75758;SDS011;64371;47.566;19.086;2022-10-31T18:08:18;6.22;;;3.85;;
75758;SDS011;64371;47.566;19.086;2022-10-31T18:11:20;4.83;;;3.97;;
75758;SDS011;64371;47.566;19.086;2022-10-31T18:14:22;4.00;;;3.60;;
75758;SDS011;64371;47.566;19.086;2022-10-31T18:17:25;5.10;;;4.00;;
75758;SDS011;64371;47.566;19.086;2022-10-31T18:20:27;4.35;;;3.60;;
75758;SDS011;64371;47.566;19.086;2022-10-31T18:23:29;5.07;;;3.83;;
75758;SDS011;64371;47.566;19.086;2022-10-31T18:26:31;5.37;;;3.73;;
75758;SDS011;64371;47.566;19.086;2022-10-31T18:29:34;6.00;;;3.97;;
75758;SDS011;64371;47.566;19.086;2022-10-31T18:32:36;5.57;;;4.35;;
75758;SDS011;64371;47.566;19.086;2022-10-31T18:35:38;4.40;;;3.80;;
75758;SDS011;64371;47.566;19.086;2022-10-31T18:38:41;4.57;;;3.47;;
75758;SDS011;64371;47.566;19.086;2022-10-31T18:41:47;4.73;;;4.00;;
75758;SDS011;64371;47.566;19.086;2022-10-31T18:44:49;5.60;;;4.00;;
75758;SDS011;64371;47.566;19.086;2022-10-31T18:47:52;6.88;;;3.80;;
75758;SDS011;64371;47.566;19.086;2022-10-31T18:50:54;6.05;;;4.05;;
75758;SDS011;64371;47.566;19.086;2022-10-31T18:53:59;5.00;;;3.80;;
75758;SDS011;64371;47.566;19.086;2022-10-31T18:57:02;4.77;;;3.97;;
75758;SDS011;64371;47.566;19.086;2022-10-31T19:00:05;4.75;;;3.95;;
75758;SDS011;64371;47.566;19.086;2022-10-31T19:03:08;5.35;;;4.25;;
75758;SDS011;64371;47.566;19.086;2022-10-31T19:06:10;4.78;;;3.70;;
75758;SDS011;64371;47.566;19.086;2022-10-31T19:09:12;5.15;;;3.70;;
75758;SDS011;64371;47.566;19.086;2022-10-31T19:12:15;4.70;;;3.93;;
75758;SDS011;64371;47.566;19.086;2022-10-31T19:15:17;5.00;;;4.00;;
75758;SDS011;64371;47.566;19.086;2022-10-31T19:18:19;5.60;;;3.78;;
75758;SDS011;64371;47.566;19.086;2022-10-31T19:21:22;5.00;;;4.22;;
75758;SDS011;64371;47.566;19.086;2022-10-31T19:24:24;5.55;;;3.95;;
75758;SDS011;64371;47.566;19.086;2022-10-31T19:27:27;5.13;;;3.60;;
75758;SDS011;64371;47.566;19.086;2022-10-31T19:30:29;5.85;;;3.90;;
75758;SDS011;64371;47.566;19.086;2022-10-31T19:33:31;5.45;;;4.07;;
75758;SDS011;64371;47.566;19.086;2022-10-31T19:36:37;5.70;;;4.10;;
75758;SDS011;64371;47.566;19.086;2022-10-31T19:39:39;5.75;;;3.72;;
75758;SDS011;64371;47.566;19.086;2022-10-31T19:42:45;5.20;;;3.93;;
75758;SDS011;64371;47.566;19.086;2022-10-31T19:45:54;5.70;;;4.00;;
75758;SDS011;64371;47.566;19.086;2022-10-31T19:48:57;4.53;;;3.67;;
75758;SDS011;64371;47.566;19.086;2022-10-31T19:52:00;5.00;;;3.80;;
75758;SDS011;64371;47.566;19.086;2022-10-31T19:55:02;5.32;;;4.20;;
75758;SDS011;64371;47.566;19.086;2022-10-31T19:58:04;5.63;;;3.90;;
75758;SDS011;64371;47.566;19.086;2022-10-31T20:01:07;5.85;;;3.97;;
75758;SDS011;64371;47.566;19.086;2022-10-31T20:04:09;6.53;;;3.92;;
75758;SDS011;64371;47.566;19.086;2022-10-31T20:07:12;4.68;;;3.85;;
75758;SDS011;64371;47.566;19.086;2022-10-31T20:10:14;5.95;;;3.80;;
75758;SDS011;64371;47.566;19.086;2022-10-31T20:13:17;5.00;;;3.90;;
75758;SDS011;64371;47.566;19.086;2022-10-31T20:16:19;6.20;;;4.15;;
75758;SDS011;64371;47.566;19.086;2022-10-31T20:19:22;5.00;;;3.85;;
75758;SDS011;64371;47.566;19.086;2022-10-31T20:22:25;5.35;;;4.10;;
75758;SDS011;64371;47.566;19.086;2022-10-31T20:25:29;5.80;;;4.03;;
75758;SDS011;64371;47.566;19.086;2022-10-31T20:28:33;6.00;;;4.00;;